sensor_id;sensor_type;location;lat;lon;timestamp;P1;durP1;ratioP1;P2;durP2;ratioP2
65971;SDS011;52726;48.852;9.152;2022-07-17T00:02:25;3.75;;;2.05;;
65971;SDS011;52726;48.852;9.152;2022-07-17T00:04:50;3.53;;;2.60;;
65971;SDS011;52726;48.852;9.152;2022-07-17T00:07:16;2.40;;;2.15;;
65971;SDS011;52726;48.852;9.152;2022-07-17T00:09:41;2.08;;;1.88;;
65971;SDS011;52726;48.852;9.152;2022-07-17T00:12:06;2.83;;;2.30;;
65971;SDS011;52726;48.852;9.152;2022-07-17T00:14:32;4.13;;;2.75;;
65971;SDS011;52726;48.852;9.152;2022-07-17T00:16:58;4.45;;;2.33;;
65971;SDS011;52726;48.852;9.152;2022-07-17T00:19:24;2.83;;;2.60;;
65971;SDS011;52726;48.852;9.152;2022-07-17T00:21:50;4.80;;;2.60;;
65971;SDS011;52726;48.852;9.152;2022-07-17T00:24:15;5.32;;;2.28;;
65971;SDS011;52726;48.852;9.152;2022-07-17T00:26:45;8.18;;;2.55;;
65971;SDS011;52726;48.852;9.152;2022-07-17T00:29:12;2.50;;;2.30;;
65971;SDS011;52726;48.852;9.152;2022-07-17T00:31:37;4.35;;;2.05;;
65971;SDS011;52726;48.852;9.152;2022-07-17T00:34:02;5.05;;;2.50;;
65971;SDS011;52726;48.852;9.152;2022-07-17T00:36:28;4.32;;;2.40;;
65971;SDS011;52726;48.852;9.152;2022-07-17T00:38:54;3.40;;;2.67;;
65971;SDS011;52726;48.852;9.152;2022-07-17T00:41:19;3.03;;;2.35;;
65971;SDS011;52726;48.852;9.152;2022-07-17T00:43:45;2.70;;;2.17;;
65971;SDS011;52726;48.852;9.152;2022-07-17T00:46:11;7.13;;;2.65;;
65971;SDS011;52726;48.852;9.152;2022-07-17T00:48:36;4.00;;;2.70;;
65971;SDS011;52726;48.852;9.152;2022-07-17T00:51:01;3.92;;;2.28;;
65971;SDS011;52726;48.852;9.152;2022-07-17T00:53:27;3.10;;;2.10;;
65971;SDS011;52726;48.852;9.152;2022-07-17T00:55:56;4.05;;;2.30;;
65971;SDS011;52726;48.852;9.152;2022-07-17T00:58:24;4.18;;;2.70;;
65971;SDS011;52726;48.852;9.152;2022-07-17T01:00:54;4.38;;;2.60;;
65971;SDS011;52726;48.852;9.152;2022-07-17T01:03:20;4.78;;;2.58;;
65971;SDS011;52726;48.852;9.152;2022-07-17T01:05:47;5.88;;;2.38;;
65971;SDS011;52726;48.852;9.152;2022-07-17T01:08:13;3.65;;;2.55;;
65971;SDS011;52726;48.852;9.152;2022-07-17T01:10:38;4.72;;;2.33;;
65971;SDS011;52726;48.852;9.152;2022-07-17T01:13:04;3.10;;;2.60;;
65971;SDS011;52726;48.852;9.152;2022-07-17T01:15:30;19.60;;;2.70;;
65971;SDS011;52726;48.852;9.152;2022-07-17T01:17:57;7.10;;;2.58;;
65971;SDS011;52726;48.852;9.152;2022-07-17T01:20:23;2.83;;;2.10;;
65971;SDS011;52726;48.852;9.152;2022-07-17T01:22:49;5.15;;;2.60;;
65971;SDS011;52726;48.852;9.152;2022-07-17T01:25:18;5.78;;;2.65;;
65971;SDS011;52726;48.852;9.152;2022-07-17T01:27:46;4.47;;;2.50;;
65971;SDS011;52726;48.852;9.152;2022-07-17T01:30:11;4.13;;;3.00;;
65971;SDS011;52726;48.852;9.152;2022-07-17T01:32:37;6.03;;;2.70;;
65971;SDS011;52726;48.852;9.152;2022-07-17T01:35:04;5.70;;;2.70;;
65971;SDS011;52726;48.852;9.152;2022-07-17T01:37:31;4.47;;;2.28;;
65971;SDS011;52726;48.852;9.152;2022-07-17T01:39:56;5.93;;;3.13;;
65971;SDS011;52726;48.852;9.152;2022-07-17T01:42:23;4.53;;;2.65;;
65971;SDS011;52726;48.852;9.152;2022-07-17T01:44:49;5.25;;;3.03;;
65971;SDS011;52726;48.852;9.152;2022-07-17T01:47:15;5.38;;;2.95;;
65971;SDS011;52726;48.852;9.152;2022-07-17T01:49:45;4.93;;;2.70;;
65971;SDS011;52726;48.852;9.152;2022-07-17T01:52:12;9.10;;;2.60;;
65971;SDS011;52726;48.852;9.152;2022-07-17T01:54:38;6.20;;;2.97;;
65971;SDS011;52726;48.852;9.152;2022-07-17T01:57:04;6.53;;;2.70;;
65971;SDS011;52726;48.852;9.152;2022-07-17T01:59:29;3.10;;;2.50;;
65971;SDS011;52726;48.852;9.152;2022-07-17T02:01:55;3.53;;;2.38;;
65971;SDS011;52726;48.852;9.152;2022-07-17T02:04:20;6.30;;;2.75;;
65971;SDS011;52726;48.852;9.152;2022-07-17T02:06:45;3.63;;;2.60;;
65971;SDS011;52726;48.852;9.152;2022-07-17T02:09:11;5.40;;;3.00;;
65971;SDS011;52726;48.852;9.152;2022-07-17T02:11:36;5.70;;;2.78;;
65971;SDS011;52726;48.852;9.152;2022-07-17T02:14:02;4.85;;;2.60;;
65971;SDS011;52726;48.852;9.152;2022-07-17T02:16:27;5.32;;;2.83;;
65971;SDS011;52726;48.852;9.152;2022-07-17T02:18:52;4.10;;;3.00;;
65971;SDS011;52726;48.852;9.152;2022-07-17T02:21:18;4.03;;;3.05;;
65971;SDS011;52726;48.852;9.152;2022-07-17T02:23:43;3.72;;;2.90;;
65971;SDS011;52726;48.852;9.152;2022-07-17T02:26:08;4.63;;;2.70;;
65971;SDS011;52726;48.852;9.152;2022-07-17T02:28:35;5.38;;;3.00;;
65971;SDS011;52726;48.852;9.152;2022-07-17T02:31:00;4.38;;;2.88;;
65971;SDS011;52726;48.852;9.152;2022-07-17T02:33:25;4.10;;;3.03;;
65971;SDS011;52726;48.852;9.152;2022-07-17T02:35:51;6.18;;;3.50;;
65971;SDS011;52726;48.852;9.152;2022-07-17T02:38:16;5.68;;;3.47;;
65971;SDS011;52726;48.852;9.152;2022-07-17T02:40:41;5.95;;;2.92;;
65971;SDS011;52726;48.852;9.152;2022-07-17T02:43:07;3.45;;;3.10;;
65971;SDS011;52726;48.852;9.152;2022-07-17T02:45:32;8.98;;;3.20;;
65971;SDS011;52726;48.852;9.152;2022-07-17T02:47:58;4.78;;;2.78;;
65971;SDS011;52726;48.852;9.152;2022-07-17T02:50:23;4.53;;;3.10;;
65971;SDS011;52726;48.852;9.152;2022-07-17T02:52:49;6.43;;;2.92;;
65971;SDS011;52726;48.852;9.152;2022-07-17T02:55:15;4.78;;;2.95;;
65971;SDS011;52726;48.852;9.152;2022-07-17T02:57:41;3.60;;;3.17;;
65971;SDS011;52726;48.852;9.152;2022-07-17T03:00:08;3.38;;;2.90;;
65971;SDS011;52726;48.852;9.152;2022-07-17T03:02:36;4.65;;;2.90;;
65971;SDS011;52726;48.852;9.152;2022-07-17T03:05:01;5.70;;;3.17;;
65971;SDS011;52726;48.852;9.152;2022-07-17T03:07:27;5.22;;;3.17;;
65971;SDS011;52726;48.852;9.152;2022-07-17T03:09:53;5.75;;;2.78;;
65971;SDS011;52726;48.852;9.152;2022-07-17T03:12:18;4.43;;;3.20;;
65971;SDS011;52726;48.852;9.152;2022-07-17T03:14:43;4.47;;;3.25;;
65971;SDS011;52726;48.852;9.152;2022-07-17T03:17:09;3.25;;;2.95;;
65971;SDS011;52726;48.852;9.152;2022-07-17T03:19:34;3.63;;;2.75;;
65971;SDS011;52726;48.852;9.152;2022-07-17T03:22:00;6.32;;;3.10;;
65971;SDS011;52726;48.852;9.152;2022-07-17T03:24:26;3.47;;;2.78;;
65971;SDS011;52726;48.852;9.152;2022-07-17T03:26:51;3.13;;;2.70;;
65971;SDS011;52726;48.852;9.152;2022-07-17T03:29:16;7.13;;;3.28;;
65971;SDS011;52726;48.852;9.152;2022-07-17T03:31:42;3.58;;;3.03;;
65971;SDS011;52726;48.852;9.152;2022-07-17T03:34:08;5.15;;;2.90;;
65971;SDS011;52726;48.852;9.152;2022-07-17T03:36:34;7.18;;;3.15;;
65971;SDS011;52726;48.852;9.152;2022-07-17T03:38:59;3.38;;;2.88;;
65971;SDS011;52726;48.852;9.152;2022-07-17T03:41:24;3.88;;;2.90;;
65971;SDS011;52726;48.852;9.152;2022-07-17T03:43:51;4.30;;;2.70;;
65971;SDS011;52726;48.852;9.152;2022-07-17T03:46:16;15.10;;;3.22;;
65971;SDS011;52726;48.852;9.152;2022-07-17T03:48:41;3.75;;;3.00;;
65971;SDS011;52726;48.852;9.152;2022-07-17T03:51:07;5.40;;;3.17;;
65971;SDS011;52726;48.852;9.152;2022-07-17T03:53:32;4.57;;;3.35;;
65971;SDS011;52726;48.852;9.152;2022-07-17T03:55:58;5.95;;;3.50;;
65971;SDS011;52726;48.852;9.152;2022-07-17T03:58:23;6.43;;;3.75;;
65971;SDS011;52726;48.852;9.152;2022-07-17T04:00:48;5.50;;;3.40;;
65971;SDS011;52726;48.852;9.152;2022-07-17T04:03:14;6.95;;;3.22;;
65971;SDS011;52726;48.852;9.152;2022-07-17T04:05:39;5.05;;;3.15;;
65971;SDS011;52726;48.852;9.152;2022-07-17T04:08:04;4.15;;;2.97;;
65971;SDS011;52726;48.852;9.152;2022-07-17T04:10:30;5.75;;;3.10;;
65971;SDS011;52726;48.852;9.152;2022-07-17T04:12:55;7.15;;;3.63;;
65971;SDS011;52726;48.852;9.152;2022-07-17T04:15:21;6.10;;;3.78;;
65971;SDS011;52726;48.852;9.152;2022-07-17T04:18:05;5.75;;;3.38;;
65971;SDS011;52726;48.852;9.152;2022-07-17T04:20:30;4.57;;;3.33;;
65971;SDS011;52726;48.852;9.152;2022-07-17T04:22:55;8.95;;;3.22;;
65971;SDS011;52726;48.852;9.152;2022-07-17T04:25:22;6.22;;;2.90;;
65971;SDS011;52726;48.852;9.152;2022-07-17T04:27:48;6.07;;;3.40;;
65971;SDS011;52726;48.852;9.152;2022-07-17T04:30:13;7.20;;;3.92;;
65971;SDS011;52726;48.852;9.152;2022-07-17T04:32:38;5.72;;;3.28;;
65971;SDS011;52726;48.852;9.152;2022-07-17T04:35:04;4.70;;;3.30;;
65971;SDS011;52726;48.852;9.152;2022-07-17T04:37:57;3.75;;;3.13;;
65971;SDS011;52726;48.852;9.152;2022-07-17T04:40:22;5.40;;;3.55;;
65971;SDS011;52726;48.852;9.152;2022-07-17T04:42:48;5.80;;;3.20;;
65971;SDS011;52726;48.852;9.152;2022-07-17T04:45:13;6.20;;;3.22;;
65971;SDS011;52726;48.852;9.152;2022-07-17T04:47:39;4.72;;;3.20;;
65971;SDS011;52726;48.852;9.152;2022-07-17T04:50:05;5.75;;;3.13;;
65971;SDS011;52726;48.852;9.152;2022-07-17T04:52:32;4.30;;;3.25;;
65971;SDS011;52726;48.852;9.152;2022-07-17T04:54:58;5.50;;;3.40;;
65971;SDS011;52726;48.852;9.152;2022-07-17T04:57:23;4.65;;;2.92;;
65971;SDS011;52726;48.852;9.152;2022-07-17T04:59:48;7.95;;;3.20;;
65971;SDS011;52726;48.852;9.152;2022-07-17T05:02:14;4.80;;;3.38;;
65971;SDS011;52726;48.852;9.152;2022-07-17T05:04:39;7.60;;;3.90;;
65971;SDS011;52726;48.852;9.152;2022-07-17T05:07:05;6.13;;;3.47;;
65971;SDS011;52726;48.852;9.152;2022-07-17T05:09:30;3.97;;;3.15;;
65971;SDS011;52726;48.852;9.152;2022-07-17T05:11:56;5.53;;;3.47;;
65971;SDS011;52726;48.852;9.152;2022-07-17T05:14:21;11.32;;;3.40;;
65971;SDS011;52726;48.852;9.152;2022-07-17T05:16:47;5.63;;;3.83;;
65971;SDS011;52726;48.852;9.152;2022-07-17T05:19:12;6.63;;;3.58;;
65971;SDS011;52726;48.852;9.152;2022-07-17T05:21:38;6.85;;;3.83;;
65971;SDS011;52726;48.852;9.152;2022-07-17T05:24:03;8.52;;;3.85;;
65971;SDS011;52726;48.852;9.152;2022-07-17T05:26:29;5.65;;;4.00;;
65971;SDS011;52726;48.852;9.152;2022-07-17T05:28:55;7.80;;;4.10;;
65971;SDS011;52726;48.852;9.152;2022-07-17T05:31:20;5.85;;;4.50;;
65971;SDS011;52726;48.852;9.152;2022-07-17T05:33:45;8.10;;;4.05;;
65971;SDS011;52726;48.852;9.152;2022-07-17T05:36:11;4.90;;;4.10;;
65971;SDS011;52726;48.852;9.152;2022-07-17T05:38:36;8.27;;;4.55;;
65971;SDS011;52726;48.852;9.152;2022-07-17T05:41:02;6.22;;;4.30;;
65971;SDS011;52726;48.852;9.152;2022-07-17T05:43:28;5.60;;;3.63;;
65971;SDS011;52726;48.852;9.152;2022-07-17T05:45:53;5.03;;;3.80;;
65971;SDS011;52726;48.852;9.152;2022-07-17T05:48:20;5.60;;;4.28;;
65971;SDS011;52726;48.852;9.152;2022-07-17T05:50:46;8.20;;;4.13;;
65971;SDS011;52726;48.852;9.152;2022-07-17T05:53:11;5.43;;;4.00;;
65971;SDS011;52726;48.852;9.152;2022-07-17T05:55:37;8.60;;;4.13;;
65971;SDS011;52726;48.852;9.152;2022-07-17T05:58:02;6.63;;;3.88;;
65971;SDS011;52726;48.852;9.152;2022-07-17T06:00:28;8.75;;;4.25;;
65971;SDS011;52726;48.852;9.152;2022-07-17T06:02:54;4.78;;;3.70;;
65971;SDS011;52726;48.852;9.152;2022-07-17T06:05:19;5.90;;;4.05;;
65971;SDS011;52726;48.852;9.152;2022-07-17T06:07:45;7.70;;;3.90;;
65971;SDS011;52726;48.852;9.152;2022-07-17T06:10:10;4.13;;;3.50;;
65971;SDS011;52726;48.852;9.152;2022-07-17T06:12:36;5.30;;;3.17;;
65971;SDS011;52726;48.852;9.152;2022-07-17T06:15:02;4.28;;;3.03;;
65971;SDS011;52726;48.852;9.152;2022-07-17T06:17:27;5.07;;;3.72;;
65971;SDS011;52726;48.852;9.152;2022-07-17T06:19:53;7.00;;;3.10;;
65971;SDS011;52726;48.852;9.152;2022-07-17T06:22:19;9.82;;;3.60;;
65971;SDS011;52726;48.852;9.152;2022-07-17T06:24:45;4.68;;;3.45;;
65971;SDS011;52726;48.852;9.152;2022-07-17T06:27:11;5.20;;;2.83;;
65971;SDS011;52726;48.852;9.152;2022-07-17T06:29:36;3.25;;;2.55;;
65971;SDS011;52726;48.852;9.152;2022-07-17T06:32:02;3.97;;;3.13;;
65971;SDS011;52726;48.852;9.152;2022-07-17T06:34:27;4.13;;;2.90;;
65971;SDS011;52726;48.852;9.152;2022-07-17T06:36:52;3.08;;;2.78;;
65971;SDS011;52726;48.852;9.152;2022-07-17T06:39:18;4.35;;;3.20;;
65971;SDS011;52726;48.852;9.152;2022-07-17T06:41:43;5.28;;;3.55;;
65971;SDS011;52726;48.852;9.152;2022-07-17T06:44:08;4.07;;;2.72;;
65971;SDS011;52726;48.852;9.152;2022-07-17T06:46:34;2.58;;;2.38;;
65971;SDS011;52726;48.852;9.152;2022-07-17T06:48:59;6.65;;;2.67;;
65971;SDS011;52726;48.852;9.152;2022-07-17T06:51:24;3.38;;;2.20;;
65971;SDS011;52726;48.852;9.152;2022-07-17T06:53:50;3.47;;;2.35;;
65971;SDS011;52726;48.852;9.152;2022-07-17T06:56:15;3.17;;;2.70;;
65971;SDS011;52726;48.852;9.152;2022-07-17T06:58:40;4.30;;;2.35;;
65971;SDS011;52726;48.852;9.152;2022-07-17T07:01:06;3.42;;;2.15;;
65971;SDS011;52726;48.852;9.152;2022-07-17T07:03:31;4.82;;;2.30;;
65971;SDS011;52726;48.852;9.152;2022-07-17T07:05:57;2.20;;;2.00;;
65971;SDS011;52726;48.852;9.152;2022-07-17T07:08:22;2.65;;;1.85;;
65971;SDS011;52726;48.852;9.152;2022-07-17T07:10:48;3.70;;;2.22;;
65971;SDS011;52726;48.852;9.152;2022-07-17T07:13:14;1.90;;;1.75;;
65971;SDS011;52726;48.852;9.152;2022-07-17T07:15:39;2.88;;;2.00;;
65971;SDS011;52726;48.852;9.152;2022-07-17T07:18:04;2.42;;;1.95;;
65971;SDS011;52726;48.852;9.152;2022-07-17T07:20:30;2.67;;;2.13;;
65971;SDS011;52726;48.852;9.152;2022-07-17T07:22:56;5.97;;;1.80;;
65971;SDS011;52726;48.852;9.152;2022-07-17T07:25:22;4.40;;;2.08;;
65971;SDS011;52726;48.852;9.152;2022-07-17T07:27:47;3.65;;;2.08;;
65971;SDS011;52726;48.852;9.152;2022-07-17T07:30:15;2.75;;;1.60;;
65971;SDS011;52726;48.852;9.152;2022-07-17T07:32:40;1.90;;;1.52;;
65971;SDS011;52726;48.852;9.152;2022-07-17T07:35:07;1.55;;;1.45;;
65971;SDS011;52726;48.852;9.152;2022-07-17T07:37:33;2.42;;;1.90;;
65971;SDS011;52726;48.852;9.152;2022-07-17T07:39:58;4.25;;;1.60;;
65971;SDS011;52726;48.852;9.152;2022-07-17T07:42:24;3.70;;;1.90;;
65971;SDS011;52726;48.852;9.152;2022-07-17T07:44:50;5.85;;;1.70;;
65971;SDS011;52726;48.852;9.152;2022-07-17T07:47:17;2.60;;;1.88;;
65971;SDS011;52726;48.852;9.152;2022-07-17T07:49:42;2.63;;;1.98;;
65971;SDS011;52726;48.852;9.152;2022-07-17T07:52:08;3.25;;;1.88;;
65971;SDS011;52726;48.852;9.152;2022-07-17T07:54:34;4.13;;;1.95;;
65971;SDS011;52726;48.852;9.152;2022-07-17T07:57:01;3.72;;;1.60;;
65971;SDS011;52726;48.852;9.152;2022-07-17T07:59:26;3.00;;;1.80;;
65971;SDS011;52726;48.852;9.152;2022-07-17T08:01:53;2.08;;;1.75;;
65971;SDS011;52726;48.852;9.152;2022-07-17T08:04:19;1.75;;;1.60;;
65971;SDS011;52726;48.852;9.152;2022-07-17T08:06:46;4.78;;;2.00;;
65971;SDS011;52726;48.852;9.152;2022-07-17T08:09:12;5.78;;;1.55;;
65971;SDS011;52726;48.852;9.152;2022-07-17T08:11:37;9.73;;;2.00;;
65971;SDS011;52726;48.852;9.152;2022-07-17T08:14:03;1.92;;;1.70;;
65971;SDS011;52726;48.852;9.152;2022-07-17T08:16:29;3.17;;;1.50;;
65971;SDS011;52726;48.852;9.152;2022-07-17T08:18:57;1.67;;;1.58;;
65971;SDS011;52726;48.852;9.152;2022-07-17T08:21:23;1.45;;;1.35;;
65971;SDS011;52726;48.852;9.152;2022-07-17T08:23:51;2.38;;;1.60;;
65971;SDS011;52726;48.852;9.152;2022-07-17T08:26:16;3.28;;;1.60;;
65971;SDS011;52726;48.852;9.152;2022-07-17T08:28:42;2.25;;;1.70;;
65971;SDS011;52726;48.852;9.152;2022-07-17T08:31:07;2.33;;;1.42;;
65971;SDS011;52726;48.852;9.152;2022-07-17T08:33:59;3.20;;;1.60;;
65971;SDS011;52726;48.852;9.152;2022-07-17T08:36:25;1.67;;;1.48;;
65971;SDS011;52726;48.852;9.152;2022-07-17T08:38:52;2.67;;;1.50;;
65971;SDS011;52726;48.852;9.152;2022-07-17T08:41:17;1.50;;;1.40;;
65971;SDS011;52726;48.852;9.152;2022-07-17T08:43:50;2.75;;;1.67;;
65971;SDS011;52726;48.852;9.152;2022-07-17T08:46:25;3.47;;;1.60;;
65971;SDS011;52726;48.852;9.152;2022-07-17T08:48:53;1.63;;;1.52;;
65971;SDS011;52726;48.852;9.152;2022-07-17T08:51:27;4.22;;;3.20;;
65971;SDS011;52726;48.852;9.152;2022-07-17T08:53:53;2.75;;;1.95;;
65971;SDS011;52726;48.852;9.152;2022-07-17T08:56:21;1.98;;;1.52;;
65971;SDS011;52726;48.852;9.152;2022-07-17T08:58:47;1.80;;;1.70;;
65971;SDS011;52726;48.852;9.152;2022-07-17T09:01:16;1.77;;;1.40;;
65971;SDS011;52726;48.852;9.152;2022-07-17T09:04:00;3.35;;;1.60;;
65971;SDS011;52726;48.852;9.152;2022-07-17T09:06:35;1.70;;;1.60;;
65971;SDS011;52726;48.852;9.152;2022-07-17T09:09:09;5.13;;;1.63;;
65971;SDS011;52726;48.852;9.152;2022-07-17T09:14:16;2.72;;;1.55;;
65971;SDS011;52726;48.852;9.152;2022-07-17T09:19:34;2.33;;;1.57;;
65971;SDS011;52726;48.852;9.152;2022-07-17T09:24:53;1.70;;;1.50;;
65971;SDS011;52726;48.852;9.152;2022-07-17T09:27:48;1.42;;;1.33;;
65971;SDS011;52726;48.852;9.152;2022-07-17T09:30:25;1.70;;;1.58;;
65971;SDS011;52726;48.852;9.152;2022-07-17T09:32:51;3.85;;;1.50;;
65971;SDS011;52726;48.852;9.152;2022-07-17T09:35:21;1.50;;;1.40;;
65971;SDS011;52726;48.852;9.152;2022-07-17T09:37:50;2.08;;;1.50;;
65971;SDS011;52726;48.852;9.152;2022-07-17T09:44:20;1.38;;;1.27;;
65971;SDS011;52726;48.852;9.152;2022-07-17T09:46:50;1.63;;;1.52;;
65971;SDS011;52726;48.852;9.152;2022-07-17T09:49:38;3.95;;;1.67;;
65971;SDS011;52726;48.852;9.152;2022-07-17T09:52:04;1.40;;;1.30;;
65971;SDS011;52726;48.852;9.152;2022-07-17T09:54:31;2.08;;;1.15;;
65971;SDS011;52726;48.852;9.152;2022-07-17T09:56:58;1.88;;;0.98;;
65971;SDS011;52726;48.852;9.152;2022-07-17T09:59:23;2.20;;;1.50;;
65971;SDS011;52726;48.852;9.152;2022-07-17T10:01:52;1.25;;;1.15;;
65971;SDS011;52726;48.852;9.152;2022-07-17T10:04:18;1.40;;;1.30;;
65971;SDS011;52726;48.852;9.152;2022-07-17T10:06:43;4.90;;;1.52;;
65971;SDS011;52726;48.852;9.152;2022-07-17T10:09:09;1.42;;;1.33;;
65971;SDS011;52726;48.852;9.152;2022-07-17T10:11:36;6.28;;;1.40;;
65971;SDS011;52726;48.852;9.152;2022-07-17T10:14:08;10.05;;;1.40;;
65971;SDS011;52726;48.852;9.152;2022-07-17T10:16:36;2.72;;;1.20;;
65971;SDS011;52726;48.852;9.152;2022-07-17T10:19:03;1.70;;;1.60;;
65971;SDS011;52726;48.852;9.152;2022-07-17T10:21:40;1.27;;;1.20;;
65971;SDS011;52726;48.852;9.152;2022-07-17T10:24:23;1.05;;;1.05;;
65971;SDS011;52726;48.852;9.152;2022-07-17T10:26:50;1.98;;;1.23;;
65971;SDS011;52726;48.852;9.152;2022-07-17T10:29:32;1.40;;;1.30;;
65971;SDS011;52726;48.852;9.152;2022-07-17T10:32:22;1.20;;;1.10;;
65971;SDS011;52726;48.852;9.152;2022-07-17T10:34:48;1.38;;;1.27;;
65971;SDS011;52726;48.852;9.152;2022-07-17T10:37:19;2.22;;;1.13;;
65971;SDS011;52726;48.852;9.152;2022-07-17T10:40:00;1.65;;;1.40;;
65971;SDS011;52726;48.852;9.152;2022-07-17T10:45:37;6.78;;;1.90;;
65971;SDS011;52726;48.852;9.152;2022-07-17T10:48:11;3.53;;;1.33;;
65971;SDS011;52726;48.852;9.152;2022-07-17T10:50:47;3.38;;;0.98;;
65971;SDS011;52726;48.852;9.152;2022-07-17T10:53:30;1.30;;;1.20;;
65971;SDS011;52726;48.852;9.152;2022-07-17T10:56:07;1.20;;;1.10;;
65971;SDS011;52726;48.852;9.152;2022-07-17T10:58:37;1.45;;;1.35;;
65971;SDS011;52726;48.852;9.152;2022-07-17T11:01:14;1.20;;;1.10;;
65971;SDS011;52726;48.852;9.152;2022-07-17T11:03:53;1.25;;;1.20;;
65971;SDS011;52726;48.852;9.152;2022-07-17T11:08:49;1.40;;;1.30;;
65971;SDS011;52726;48.852;9.152;2022-07-17T11:11:41;4.03;;;1.20;;
65971;SDS011;52726;48.852;9.152;2022-07-17T11:14:15;2.10;;;1.50;;
65971;SDS011;52726;48.852;9.152;2022-07-17T11:19:25;2.60;;;1.35;;
65971;SDS011;52726;48.852;9.152;2022-07-17T11:21:55;2.20;;;1.10;;
65971;SDS011;52726;48.852;9.152;2022-07-17T11:24:22;3.78;;;1.33;;
65971;SDS011;52726;48.852;9.152;2022-07-17T11:27:18;6.97;;;1.40;;
65971;SDS011;52726;48.852;9.152;2022-07-17T11:29:50;1.20;;;1.15;;
65971;SDS011;52726;48.852;9.152;2022-07-17T11:32:23;1.60;;;1.20;;
65971;SDS011;52726;48.852;9.152;2022-07-17T11:34:50;1.55;;;1.25;;
65971;SDS011;52726;48.852;9.152;2022-07-17T11:37:16;1.67;;;1.00;;
65971;SDS011;52726;48.852;9.152;2022-07-17T11:39:46;2.67;;;1.00;;
65971;SDS011;52726;48.852;9.152;2022-07-17T11:42:14;1.23;;;1.13;;
65971;SDS011;52726;48.852;9.152;2022-07-17T11:44:42;1.58;;;1.17;;
65971;SDS011;52726;48.852;9.152;2022-07-17T11:47:08;1.10;;;1.10;;
65971;SDS011;52726;48.852;9.152;2022-07-17T11:50:14;1.58;;;1.40;;
65971;SDS011;52726;48.852;9.152;2022-07-17T11:52:41;3.25;;;1.40;;
65971;SDS011;52726;48.852;9.152;2022-07-17T11:55:12;1.73;;;1.17;;
65971;SDS011;52726;48.852;9.152;2022-07-17T11:57:46;1.63;;;1.42;;
65971;SDS011;52726;48.852;9.152;2022-07-17T12:00:24;2.28;;;1.10;;
65971;SDS011;52726;48.852;9.152;2022-07-17T12:02:58;1.52;;;1.42;;
65971;SDS011;52726;48.852;9.152;2022-07-17T12:05:34;1.60;;;1.50;;
65971;SDS011;52726;48.852;9.152;2022-07-17T12:08:00;1.33;;;1.20;;
65971;SDS011;52726;48.852;9.152;2022-07-17T12:10:27;1.65;;;1.30;;
65971;SDS011;52726;48.852;9.152;2022-07-17T12:12:55;1.77;;;1.50;;
65971;SDS011;52726;48.852;9.152;2022-07-17T12:18:04;2.60;;;1.60;;
65971;SDS011;52726;48.852;9.152;2022-07-17T12:20:40;1.92;;;1.42;;
65971;SDS011;52726;48.852;9.152;2022-07-17T12:23:08;1.88;;;1.40;;
65971;SDS011;52726;48.852;9.152;2022-07-17T12:25:33;1.00;;;1.00;;
65971;SDS011;52726;48.852;9.152;2022-07-17T12:27:59;2.28;;;1.40;;
65971;SDS011;52726;48.852;9.152;2022-07-17T12:30:26;2.47;;;1.27;;
65971;SDS011;52726;48.852;9.152;2022-07-17T12:32:52;2.15;;;1.23;;
65971;SDS011;52726;48.852;9.152;2022-07-17T12:35:17;5.03;;;1.48;;
65971;SDS011;52726;48.852;9.152;2022-07-17T12:37:43;4.30;;;1.20;;
65971;SDS011;52726;48.852;9.152;2022-07-17T12:40:11;4.28;;;1.50;;
65971;SDS011;52726;48.852;9.152;2022-07-17T12:42:37;1.33;;;1.20;;
65971;SDS011;52726;48.852;9.152;2022-07-17T12:45:02;1.33;;;1.08;;
65971;SDS011;52726;48.852;9.152;2022-07-17T12:47:28;1.95;;;1.33;;
65971;SDS011;52726;48.852;9.152;2022-07-17T12:49:54;1.58;;;1.40;;
65971;SDS011;52726;48.852;9.152;2022-07-17T12:52:19;1.80;;;1.60;;
65971;SDS011;52726;48.852;9.152;2022-07-17T12:54:44;1.50;;;1.40;;
65971;SDS011;52726;48.852;9.152;2022-07-17T12:57:10;1.60;;;1.50;;
65971;SDS011;52726;48.852;9.152;2022-07-17T12:59:35;2.10;;;1.30;;
65971;SDS011;52726;48.852;9.152;2022-07-17T13:02:01;1.30;;;1.20;;
65971;SDS011;52726;48.852;9.152;2022-07-17T13:04:26;3.20;;;1.15;;
65971;SDS011;52726;48.852;9.152;2022-07-17T13:06:52;1.40;;;1.30;;
65971;SDS011;52726;48.852;9.152;2022-07-17T13:09:17;1.02;;;1.02;;
65971;SDS011;52726;48.852;9.152;2022-07-17T13:11:43;1.50;;;1.30;;
65971;SDS011;52726;48.852;9.152;2022-07-17T13:14:09;3.20;;;1.10;;
65971;SDS011;52726;48.852;9.152;2022-07-17T13:16:40;1.30;;;1.20;;
65971;SDS011;52726;48.852;9.152;2022-07-17T13:19:06;1.63;;;1.40;;
65971;SDS011;52726;48.852;9.152;2022-07-17T13:21:32;1.67;;;1.20;;
65971;SDS011;52726;48.852;9.152;2022-07-17T13:23:59;3.00;;;1.50;;
65971;SDS011;52726;48.852;9.152;2022-07-17T13:26:25;2.28;;;1.40;;
65971;SDS011;52726;48.852;9.152;2022-07-17T13:28:50;1.23;;;1.13;;
65971;SDS011;52726;48.852;9.152;2022-07-17T13:31:16;2.90;;;1.33;;
65971;SDS011;52726;48.852;9.152;2022-07-17T13:33:41;1.45;;;1.33;;
65971;SDS011;52726;48.852;9.152;2022-07-17T13:36:06;0.98;;;0.98;;
65971;SDS011;52726;48.852;9.152;2022-07-17T13:38:32;4.22;;;1.30;;
65971;SDS011;52726;48.852;9.152;2022-07-17T13:40:58;1.35;;;1.25;;
65971;SDS011;52726;48.852;9.152;2022-07-17T13:43:23;2.88;;;1.40;;
65971;SDS011;52726;48.852;9.152;2022-07-17T13:45:51;1.70;;;1.13;;
65971;SDS011;52726;48.852;9.152;2022-07-17T13:48:17;2.47;;;1.33;;
65971;SDS011;52726;48.852;9.152;2022-07-17T13:50:43;1.90;;;1.40;;
65971;SDS011;52726;48.852;9.152;2022-07-17T13:53:08;3.47;;;1.30;;
65971;SDS011;52726;48.852;9.152;2022-07-17T13:55:36;1.23;;;1.13;;
65971;SDS011;52726;48.852;9.152;2022-07-17T13:58:01;1.88;;;1.10;;
65971;SDS011;52726;48.852;9.152;2022-07-17T14:00:27;5.20;;;1.30;;
65971;SDS011;52726;48.852;9.152;2022-07-17T14:02:53;2.75;;;1.40;;
65971;SDS011;52726;48.852;9.152;2022-07-17T14:05:22;1.40;;;1.30;;
65971;SDS011;52726;48.852;9.152;2022-07-17T14:07:54;2.08;;;1.42;;
65971;SDS011;52726;48.852;9.152;2022-07-17T14:10:20;1.40;;;1.30;;
65971;SDS011;52726;48.852;9.152;2022-07-17T14:12:45;1.25;;;1.10;;
65971;SDS011;52726;48.852;9.152;2022-07-17T14:15:12;1.40;;;1.30;;
65971;SDS011;52726;48.852;9.152;2022-07-17T14:17:38;2.15;;;1.00;;
65971;SDS011;52726;48.852;9.152;2022-07-17T14:20:03;1.40;;;1.30;;
65971;SDS011;52726;48.852;9.152;2022-07-17T14:22:29;1.40;;;1.30;;
65971;SDS011;52726;48.852;9.152;2022-07-17T14:24:54;1.55;;;1.30;;
65971;SDS011;52726;48.852;9.152;2022-07-17T14:27:20;1.30;;;1.20;;
65971;SDS011;52726;48.852;9.152;2022-07-17T14:29:46;2.42;;;1.30;;
65971;SDS011;52726;48.852;9.152;2022-07-17T14:32:13;1.75;;;1.15;;
65971;SDS011;52726;48.852;9.152;2022-07-17T14:34:38;2.67;;;1.17;;
65971;SDS011;52726;48.852;9.152;2022-07-17T14:37:04;1.40;;;1.30;;
65971;SDS011;52726;48.852;9.152;2022-07-17T14:39:32;1.02;;;0.93;;
65971;SDS011;52726;48.852;9.152;2022-07-17T14:41:58;1.50;;;1.20;;
65971;SDS011;52726;48.852;9.152;2022-07-17T14:44:23;1.30;;;1.20;;
65971;SDS011;52726;48.852;9.152;2022-07-17T14:46:50;1.67;;;1.17;;
65971;SDS011;52726;48.852;9.152;2022-07-17T14:49:15;1.33;;;1.23;;
65971;SDS011;52726;48.852;9.152;2022-07-17T14:51:41;1.85;;;1.40;;
65971;SDS011;52726;48.852;9.152;2022-07-17T14:54:06;1.55;;;1.33;;
65971;SDS011;52726;48.852;9.152;2022-07-17T14:56:32;1.42;;;1.33;;
65971;SDS011;52726;48.852;9.152;2022-07-17T14:58:58;1.77;;;1.10;;
65971;SDS011;52726;48.852;9.152;2022-07-17T15:01:23;2.33;;;1.50;;
65971;SDS011;52726;48.852;9.152;2022-07-17T15:03:49;1.23;;;1.15;;
65971;SDS011;52726;48.852;9.152;2022-07-17T15:09:12;1.98;;;1.52;;
65971;SDS011;52726;48.852;9.152;2022-07-17T15:12:40;1.40;;;1.30;;
65971;SDS011;52726;48.852;9.152;2022-07-17T15:15:09;1.48;;;1.27;;
65971;SDS011;52726;48.852;9.152;2022-07-17T15:17:38;2.22;;;1.63;;